sensor_id;sensor_type;location;lat;lon;timestamp;pressure;altitude;pressure_sealevel;temperature;humidity
9235;BME280;4652;42.716;23.218;2023-02-28T00:03:10;95327.03;;;5.83;100.00
9235;BME280;4652;42.716;23.218;2023-02-28T00:09:53;95342.06;;;6.06;100.00
9235;BME280;4652;42.716;23.218;2023-02-28T00:16:35;95337.09;;;5.93;100.00
9235;BME280;4652;42.716;23.218;2023-02-28T00:23:17;95349.88;;;5.91;100.00
9235;BME280;4652;42.716;23.218;2023-02-28T00:30:00;95317.31;;;5.77;100.00
9235;BME280;4652;42.716;23.218;2023-02-28T00:36:42;95359.16;;;6.05;100.00
9235;BME280;4652;42.716;23.218;2023-02-28T00:43:26;95354.72;;;5.94;100.00
9235;BME280;4652;42.716;23.218;2023-02-28T00:50:10;95354.25;;;5.97;100.00
9235;BME280;4652;42.716;23.218;2023-02-28T00:56:52;95344.69;;;5.84;100.00
9235;BME280;4652;42.716;23.218;2023-02-28T01:03:34;95344.19;;;6.04;100.00
9235;BME280;4652;42.716;23.218;2023-02-28T01:10:18;95331.31;;;6.01;100.00
9235;BME280;4652;42.716;23.218;2023-02-28T01:17:01;95319.72;;;5.74;100.00
9235;BME280;4652;42.716;23.218;2023-02-28T01:23:44;95324.91;;;6.02;100.00
9235;BME280;4652;42.716;23.218;2023-02-28T01:30:27;95317.91;;;5.96;100.00
9235;BME280;4652;42.716;23.218;2023-02-28T01:37:09;95309.66;;;6.24;100.00
9235;BME280;4652;42.716;23.218;2023-02-28T02:08:05;95313.97;;;6.25;100.00
9235;BME280;4652;42.716;23.218;2023-02-28T02:14:56;95316.47;;;6.32;100.00
9235;BME280;4652;42.716;23.218;2023-02-28T02:29:36;95317.75;;;6.51;100.00
9235;BME280;4652;42.716;23.218;2023-02-28T02:36:27;95317.53;;;6.58;100.00
9235;BME280;4652;42.716;23.218;2023-02-28T02:43:16;95329.47;;;6.72;100.00
9235;BME280;4652;42.716;23.218;2023-02-28T02:50:05;95332.28;;;6.87;100.00
9235;BME280;4652;42.716;23.218;2023-02-28T02:56:51;95317.09;;;6.92;100.00
9235;BME280;4652;42.716;23.218;2023-02-28T03:03:34;95321.66;;;6.97;100.00
9235;BME280;4652;42.716;23.218;2023-02-28T03:10:29;95330.75;;;6.96;100.00
9235;BME280;4652;42.716;23.218;2023-02-28T03:17:26;95340.50;;;7.07;100.00
9235;BME280;4652;42.716;23.218;2023-02-28T03:24:18;95350.03;;;6.93;100.00
9235;BME280;4652;42.716;23.218;2023-02-28T03:31:06;95357.38;;;6.81;100.00
9235;BME280;4652;42.716;23.218;2023-02-28T03:37:54;95369.28;;;6.90;100.00
9235;BME280;4652;42.716;23.218;2023-02-28T03:44:41;95309.22;;;6.32;100.00
9235;BME280;4652;42.716;23.218;2023-02-28T03:51:26;95381.38;;;6.71;100.00
9235;BME280;4652;42.716;23.218;2023-02-28T03:58:16;95383.41;;;6.64;100.00
9235;BME280;4652;42.716;23.218;2023-02-28T04:05:02;95377.16;;;6.53;100.00
9235;BME280;4652;42.716;23.218;2023-02-28T04:11:45;95387.81;;;6.75;100.00
9235;BME280;4652;42.716;23.218;2023-02-28T04:18:33;95381.97;;;6.78;100.00
9235;BME280;4652;42.716;23.218;2023-02-28T04:25:15;95363.50;;;6.76;100.00
9235;BME280;4652;42.716;23.218;2023-02-28T04:31:57;95386.34;;;6.84;100.00
9235;BME280;4652;42.716;23.218;2023-02-28T04:38:41;95392.00;;;6.44;100.00
9235;BME280;4652;42.716;23.218;2023-02-28T04:45:23;95402.53;;;6.50;100.00
9235;BME280;4652;42.716;23.218;2023-02-28T04:52:05;95379.19;;;6.24;100.00
9235;BME280;4652;42.716;23.218;2023-02-28T04:58:49;95420.13;;;6.46;100.00
9235;BME280;4652;42.716;23.218;2023-02-28T05:05:33;95406.97;;;6.40;100.00
9235;BME280;4652;42.716;23.218;2023-02-28T05:12:15;95427.88;;;6.43;100.00
9235;BME280;4652;42.716;23.218;2023-02-28T05:18:58;95418.22;;;6.64;100.00
9235;BME280;4652;42.716;23.218;2023-02-28T05:25:41;95423.75;;;6.57;100.00
9235;BME280;4652;42.716;23.218;2023-02-28T05:32:22;95434.19;;;6.80;100.00
9235;BME280;4652;42.716;23.218;2023-02-28T05:39:06;95439.38;;;6.87;100.00
9235;BME280;4652;42.716;23.218;2023-02-28T05:45:53;95412.19;;;6.73;100.00
9235;BME280;4652;42.716;23.218;2023-02-28T05:52:35;95442.09;;;6.92;100.00
9235;BME280;4652;42.716;23.218;2023-02-28T05:59:18;95420.69;;;6.92;100.00
9235;BME280;4652;42.716;23.218;2023-02-28T06:06:00;95446.75;;;7.01;100.00
9235;BME280;4652;42.716;23.218;2023-02-28T06:12:42;95455.63;;;7.29;100.00
9235;BME280;4652;42.716;23.218;2023-02-28T06:19:26;95433.69;;;7.32;100.00
9235;BME280;4652;42.716;23.218;2023-02-28T06:26:09;95424.03;;;7.31;100.00
9235;BME280;4652;42.716;23.218;2023-02-28T06:32:51;95449.53;;;7.38;100.00
9235;BME280;4652;42.716;23.218;2023-02-28T06:39:34;95471.25;;;7.37;100.00
9235;BME280;4652;42.716;23.218;2023-02-28T06:46:16;95467.78;;;7.15;100.00
9235;BME280;4652;42.716;23.218;2023-02-28T06:52:59;95475.47;;;7.33;100.00
9235;BME280;4652;42.716;23.218;2023-02-28T06:59:42;95477.00;;;7.50;100.00
9235;BME280;4652;42.716;23.218;2023-02-28T07:06:25;95478.59;;;7.51;100.00
9235;BME280;4652;42.716;23.218;2023-02-28T07:13:08;95476.88;;;7.67;100.00
9235;BME280;4652;42.716;23.218;2023-02-28T07:19:51;95476.03;;;7.61;100.00
9235;BME280;4652;42.716;23.218;2023-02-28T07:26:33;95471.28;;;7.74;100.00
9235;BME280;4652;42.716;23.218;2023-02-28T07:33:16;95460.09;;;7.82;100.00
9235;BME280;4652;42.716;23.218;2023-02-28T07:39:59;95471.94;;;7.86;100.00
9235;BME280;4652;42.716;23.218;2023-02-28T07:46:42;95466.72;;;8.01;100.00
9235;BME280;4652;42.716;23.218;2023-02-28T07:53:24;95411.56;;;7.78;100.00
9235;BME280;4652;42.716;23.218;2023-02-28T08:00:10;95427.09;;;8.13;100.00
9235;BME280;4652;42.716;23.218;2023-02-28T08:31:53;95448.34;;;8.61;100.00
9235;BME280;4652;42.716;23.218;2023-02-28T08:38:36;95468.25;;;8.75;100.00
9235;BME280;4652;42.716;23.218;2023-02-28T08:45:18;95468.53;;;8.27;100.00
9235;BME280;4652;42.716;23.218;2023-02-28T08:52:01;95488.00;;;8.49;100.00
9235;BME280;4652;42.716;23.218;2023-02-28T08:58:44;95477.28;;;8.54;100.00
9235;BME280;4652;42.716;23.218;2023-02-28T09:05:26;95465.53;;;8.65;100.00
9235;BME280;4652;42.716;23.218;2023-02-28T09:12:11;95462.31;;;8.63;100.00
9235;BME280;4652;42.716;23.218;2023-02-28T09:18:52;95464.00;;;8.79;100.00
9235;BME280;4652;42.716;23.218;2023-02-28T09:25:35;95443.88;;;8.92;100.00
9235;BME280;4652;42.716;23.218;2023-02-28T09:32:19;95439.09;;;9.04;100.00
9235;BME280;4652;42.716;23.218;2023-02-28T09:39:01;95449.13;;;9.34;100.00
9235;BME280;4652;42.716;23.218;2023-02-28T09:45:48;95436.25;;;9.56;100.00
9235;BME280;4652;42.716;23.218;2023-02-28T09:52:34;95440.84;;;10.01;100.00
9235;BME280;4652;42.716;23.218;2023-02-28T09:59:37;95436.81;;;9.98;100.00
9235;BME280;4652;42.716;23.218;2023-02-28T10:06:23;95419.50;;;10.65;100.00
9235;BME280;4652;42.716;23.218;2023-02-28T10:13:19;95407.72;;;11.05;100.00
9235;BME280;4652;42.716;23.218;2023-02-28T10:20:05;95380.84;;;11.39;100.00
9235;BME280;4652;42.716;23.218;2023-02-28T10:26:52;95389.44;;;12.13;100.00
9235;BME280;4652;42.716;23.218;2023-02-28T10:33:40;95370.72;;;12.93;100.00
9235;BME280;4652;42.716;23.218;2023-02-28T10:40:30;95364.03;;;13.09;100.00
9235;BME280;4652;42.716;23.218;2023-02-28T10:47:14;95347.66;;;13.01;100.00
9235;BME280;4652;42.716;23.218;2023-02-28T10:53:59;95331.31;;;13.29;100.00
9235;BME280;4652;42.716;23.218;2023-02-28T11:00:41;95288.84;;;13.30;100.00
9235;BME280;4652;42.716;23.218;2023-02-28T11:07:26;95316.78;;;12.41;100.00
9235;BME280;4652;42.716;23.218;2023-02-28T11:14:19;95291.44;;;11.89;100.00
9235;BME280;4652;42.716;23.218;2023-02-28T11:21:03;95311.44;;;12.12;100.00
9235;BME280;4652;42.716;23.218;2023-02-28T11:27:48;95305.81;;;12.08;100.00
9235;BME280;4652;42.716;23.218;2023-02-28T11:34:32;95292.00;;;12.10;100.00
9235;BME280;4652;42.716;23.218;2023-02-28T11:41:30;95284.63;;;12.20;100.00
9235;BME280;4652;42.716;23.218;2023-02-28T11:48:20;95262.75;;;11.98;100.00
9235;BME280;4652;42.716;23.218;2023-02-28T11:55:15;95293.94;;;12.09;100.00
9235;BME280;4652;42.716;23.218;2023-02-28T12:02:10;95267.88;;;12.18;100.00
9235;BME280;4652;42.716;23.218;2023-02-28T12:09:04;95271.34;;;12.00;100.00
9235;BME280;4652;42.716;23.218;2023-02-28T12:16:24;95284.66;;;12.15;100.00
9235;BME280;4652;42.716;23.218;2023-02-28T12:23:32;95266.94;;;12.09;100.00
9235;BME280;4652;42.716;23.218;2023-02-28T12:30:22;95251.63;;;12.00;100.00
9235;BME280;4652;42.716;23.218;2023-02-28T12:37:12;95271.97;;;11.92;100.00
9235;BME280;4652;42.716;23.218;2023-02-28T12:44:01;95263.41;;;11.85;100.00
9235;BME280;4652;42.716;23.218;2023-02-28T12:50:44;95218.94;;;11.54;100.00
9235;BME280;4652;42.716;23.218;2023-02-28T12:57:32;95256.84;;;11.91;100.00
9235;BME280;4652;42.716;23.218;2023-02-28T13:04:42;95242.28;;;11.63;100.00
9235;BME280;4652;42.716;23.218;2023-02-28T13:11:29;95262.53;;;11.61;100.00
9235;BME280;4652;42.716;23.218;2023-02-28T13:18:32;95214.94;;;11.46;100.00
9235;BME280;4652;42.716;23.218;2023-02-28T13:32:35;95247.75;;;11.87;100.00
9235;BME280;4652;42.716;23.218;2023-02-28T13:39:46;95238.75;;;11.68;100.00
9235;BME280;4652;42.716;23.218;2023-02-28T13:46:29;95244.31;;;11.48;100.00
9235;BME280;4652;42.716;23.218;2023-02-28T13:53:28;95222.44;;;11.49;100.00
9235;BME280;4652;42.716;23.218;2023-02-28T14:08:07;95234.56;;;11.23;100.00
9235;BME280;4652;42.716;23.218;2023-02-28T14:14:56;95234.31;;;11.19;100.00
9235;BME280;4652;42.716;23.218;2023-02-28T14:21:40;95243.88;;;11.02;100.00
9235;BME280;4652;42.716;23.218;2023-02-28T14:28:41;95237.22;;;10.94;100.00
9235;BME280;4652;42.716;23.218;2023-02-28T14:35:39;95233.91;;;11.02;100.00
9235;BME280;4652;42.716;23.218;2023-02-28T14:42:30;95238.66;;;10.82;100.00
9235;BME280;4652;42.716;23.218;2023-02-28T14:49:18;95234.72;;;10.64;100.00
9235;BME280;4652;42.716;23.218;2023-02-28T14:56:00;95247.53;;;10.43;100.00
9235;BME280;4652;42.716;23.218;2023-02-28T15:02:43;95260.22;;;10.28;100.00
9235;BME280;4652;42.716;23.218;2023-02-28T15:09:26;95245.22;;;10.22;100.00
9235;BME280;4652;42.716;23.218;2023-02-28T15:16:12;95222.16;;;9.90;100.00
9235;BME280;4652;42.716;23.218;2023-02-28T15:22:56;95241.78;;;9.91;100.00
9235;BME280;4652;42.716;23.218;2023-02-28T15:29:45;95265.16;;;10.00;100.00
9235;BME280;4652;42.716;23.218;2023-02-28T15:36:29;95266.81;;;9.86;100.00
9235;BME280;4652;42.716;23.218;2023-02-28T15:43:15;95274.69;;;9.48;100.00
9235;BME280;4652;42.716;23.218;2023-02-28T15:50:00;95274.97;;;9.26;100.00
9235;BME280;4652;42.716;23.218;2023-02-28T15:56:45;95263.16;;;9.02;100.00
9235;BME280;4652;42.716;23.218;2023-02-28T16:03:43;95282.50;;;9.04;100.00
9235;BME280;4652;42.716;23.218;2023-02-28T16:10:28;95306.06;;;8.61;100.00
9235;BME280;4652;42.716;23.218;2023-02-28T16:17:16;95310.34;;;8.62;100.00
9235;BME280;4652;42.716;23.218;2023-02-28T16:24:01;95333.66;;;8.52;100.00
9235;BME280;4652;42.716;23.218;2023-02-28T16:30:44;95323.59;;;8.22;100.00
9235;BME280;4652;42.716;23.218;2023-02-28T16:37:27;95345.00;;;8.12;100.00
9235;BME280;4652;42.716;23.218;2023-02-28T16:44:12;95347.59;;;7.92;100.00
9235;BME280;4652;42.716;23.218;2023-02-28T16:50:56;95364.72;;;7.91;100.00
9235;BME280;4652;42.716;23.218;2023-02-28T16:57:39;95371.25;;;8.05;100.00
9235;BME280;4652;42.716;23.218;2023-02-28T17:04:21;95361.03;;;8.02;100.00
9235;BME280;4652;42.716;23.218;2023-02-28T17:11:04;95354.53;;;7.93;100.00
9235;BME280;4652;42.716;23.218;2023-02-28T17:17:47;95363.13;;;7.90;100.00
9235;BME280;4652;42.716;23.218;2023-02-28T17:24:30;95363.03;;;7.75;100.00
9235;BME280;4652;42.716;23.218;2023-02-28T17:31:13;95362.91;;;7.59;100.00
9235;BME280;4652;42.716;23.218;2023-02-28T17:37:55;95367.19;;;7.60;100.00
9235;BME280;4652;42.716;23.218;2023-02-28T17:44:37;95355.41;;;7.56;100.00
9235;BME280;4652;42.716;23.218;2023-02-28T17:51:22;95359.63;;;7.52;100.00
9235;BME280;4652;42.716;23.218;2023-02-28T17:58:05;95366.09;;;7.25;100.00
9235;BME280;4652;42.716;23.218;2023-02-28T18:04:47;95336.72;;;7.03;100.00
9235;BME280;4652;42.716;23.218;2023-02-28T18:11:30;95352.72;;;6.93;100.00
9235;BME280;4652;42.716;23.218;2023-02-28T18:18:21;95389.50;;;7.07;100.00
9235;BME280;4652;42.716;23.218;2023-02-28T18:25:05;95387.59;;;7.03;100.00
9235;BME280;4652;42.716;23.218;2023-02-28T18:31:50;95342.28;;;6.70;100.00
9235;BME280;4652;42.716;23.218;2023-02-28T18:38:32;95390.41;;;6.91;100.00
9235;BME280;4652;42.716;23.218;2023-02-28T18:45:14;95391.47;;;6.90;100.00
9235;BME280;4652;42.716;23.218;2023-02-28T18:51:58;95410.53;;;6.94;100.00
9235;BME280;4652;42.716;23.218;2023-02-28T18:58:40;95382.75;;;6.73;100.00
9235;BME280;4652;42.716;23.218;2023-02-28T19:05:23;95402.75;;;6.92;100.00
9235;BME280;4652;42.716;23.218;2023-02-28T19:12:06;95399.44;;;6.85;100.00
9235;BME280;4652;42.716;23.218;2023-02-28T19:18:49;95400.31;;;6.91;100.00
9235;BME280;4652;42.716;23.218;2023-02-28T19:25:31;95399.22;;;6.87;100.00
9235;BME280;4652;42.716;23.218;2023-02-28T19:32:15;95378.94;;;6.69;100.00
9235;BME280;4652;42.716;23.218;2023-02-28T19:38:57;95409.09;;;6.86;100.00
9235;BME280;4652;42.716;23.218;2023-02-28T19:45:39;95397.00;;;6.79;100.00
9235;BME280;4652;42.716;23.218;2023-02-28T19:52:23;95402.88;;;6.81;100.00
9235;BME280;4652;42.716;23.218;2023-02-28T19:59:05;95407.38;;;6.75;100.00
9235;BME280;4652;42.716;23.218;2023-02-28T20:25:13;95383.09;;;6.82;100.00
9235;BME280;4652;42.716;23.218;2023-02-28T20:31:56;95411.19;;;6.79;100.00
9235;BME280;4652;42.716;23.218;2023-02-28T20:38:38;95411.91;;;6.75;100.00
9235;BME280;4652;42.716;23.218;2023-02-28T20:45:22;95411.88;;;6.70;100.00
9235;BME280;4652;42.716;23.218;2023-02-28T20:52:05;95415.16;;;6.77;100.00
9235;BME280;4652;42.716;23.218;2023-02-28T20:58:48;95421.69;;;6.86;100.00
9235;BME280;4652;42.716;23.218;2023-02-28T21:05:32;95426.94;;;6.76;100.00
9235;BME280;4652;42.716;23.218;2023-02-28T21:12:14;95425.47;;;6.90;100.00
9235;BME280;4652;42.716;23.218;2023-02-28T21:18:58;95410.59;;;6.77;100.00
9235;BME280;4652;42.716;23.218;2023-02-28T21:25:44;95415.91;;;6.72;100.00
9235;BME280;4652;42.716;23.218;2023-02-28T21:32:26;95417.22;;;6.70;100.00
9235;BME280;4652;42.716;23.218;2023-02-28T21:39:12;95414.03;;;6.73;100.00
